createdAt,value
2023-03-13T00:01:37.449Z,98720.19
2023-03-13T00:04:06.630Z,98722.84
2023-03-13T00:06:36.840Z,98733.75
2023-03-13T00:09:07.267Z,98731.88
2023-03-13T00:11:36.480Z,98728.53
2023-03-13T00:14:06.185Z,98729.50
2023-03-13T00:16:38.771Z,98731.91
2023-03-13T00:19:09.339Z,98740.69
2023-03-13T00:21:42.279Z,98736.31
2023-03-13T00:24:13.205Z,98732.38
2023-03-13T00:26:42.191Z,98744.66
2023-03-13T00:29:11.151Z,98744.84
2023-03-13T00:31:40.214Z,98749.13
2023-03-13T00:34:09.092Z,98739.78
2023-03-13T00:36:39.118Z,98746.81
2023-03-13T00:39:08.388Z,98736.63
2023-03-13T00:41:38.114Z,98739.22
2023-03-13T00:44:07.075Z,98735.03
2023-03-13T00:46:36.728Z,98735.84
2023-03-13T00:49:05.649Z,98731.53
2023-03-13T00:51:35.575Z,98734.13
2023-03-13T00:54:05.754Z,98738.72
2023-03-13T00:56:35.037Z,98731.69
2023-03-13T00:59:04.019Z,98739.50
2023-03-13T01:01:35.549Z,98736.84
2023-03-13T01:04:10.381Z,98733.53
2023-03-13T01:06:42.325Z,98749.25
2023-03-13T01:09:14.237Z,98744.91
2023-03-13T01:11:45.036Z,98751.84
2023-03-13T01:14:20.652Z,98750.25
2023-03-13T01:16:50.259Z,98753.84
2023-03-13T01:19:19.266Z,98759.22
2023-03-13T01:21:49.034Z,98757.41
2023-03-13T01:24:18.698Z,98755.66
2023-03-13T01:26:48.563Z,98758.41
2023-03-13T01:29:17.885Z,98757.03
2023-03-13T01:31:47.297Z,98757.72
2023-03-13T01:34:16.380Z,98762.00
2023-03-13T01:36:46.603Z,98754.91
2023-03-13T01:39:15.637Z,98759.13
2023-03-13T01:41:44.923Z,98759.81
2023-03-13T01:44:22.033Z,98765.91
2023-03-13T01:46:51.584Z,98770.00
2023-03-13T01:49:29.786Z,98771.81
2023-03-13T01:52:21.447Z,98771.56
2023-03-13T01:55:00.700Z,98765.44
2023-03-13T01:57:30.644Z,98764.38
2023-03-13T02:00:06.225Z,98764.28
2023-03-13T02:02:43.697Z,98774.63
2023-03-13T02:05:13.754Z,98778.78
2023-03-13T02:07:44.619Z,98784.59
2023-03-13T02:10:15.998Z,98793.00
2023-03-13T02:12:45.759Z,98796.25
2023-03-13T02:15:16.762Z,98792.66
2023-03-13T02:17:47.877Z,98799.03
2023-03-13T02:20:17.968Z,98803.72
2023-03-13T02:25:41.898Z,98808.88
2023-03-13T02:28:15.438Z,98803.53
2023-03-13T02:30:45.703Z,98804.13
2023-03-13T02:33:15.821Z,98813.97
2023-03-13T02:35:46.758Z,98821.19
2023-03-13T02:38:21.466Z,98818.28
2023-03-13T02:40:52.819Z,98815.88
2023-03-13T02:43:25.976Z,98821.81
2023-03-13T02:46:04.677Z,98825.47
2023-03-13T02:48:40.908Z,98822.31
2023-03-13T02:51:16.519Z,98821.69
2023-03-13T02:53:46.256Z,98825.25
2023-03-13T02:56:16.802Z,98837.16
2023-03-13T02:58:50.426Z,98839.66
2023-03-13T03:01:23.898Z,98845.63
2023-03-13T03:03:53.674Z,98848.38
2023-03-13T03:06:22.566Z,98857.19
2023-03-13T03:08:52.222Z,98859.00
2023-03-13T03:11:21.718Z,98857.81
2023-03-13T03:13:56.453Z,98861.00
2023-03-13T03:16:26.922Z,98862.44
2023-03-13T03:18:56.225Z,98865.19
2023-03-13T03:21:25.254Z,98871.66
2023-03-13T03:23:54.531Z,98877.88
2023-03-13T03:26:23.473Z,98877.75
2023-03-13T03:28:53.008Z,98875.25
2023-03-13T03:31:22.283Z,98883.81
2023-03-13T03:33:51.481Z,98882.75
2023-03-13T03:36:23.538Z,98876.94
2023-03-13T03:38:53.543Z,98884.66
2023-03-13T03:41:27.173Z,98885.47
2023-03-13T03:43:57.364Z,98879.78
2023-03-13T03:46:32.097Z,98884.38
2023-03-13T03:49:01.121Z,98895.16
2023-03-13T03:51:29.815Z,98890.50
2023-03-13T03:53:59.012Z,98906.06
2023-03-13T03:56:29.845Z,98907.69
2023-03-13T03:59:01.193Z,98906.72
2023-03-13T04:02:02.423Z,98906.94
2023-03-13T04:04:33.117Z,98910.47
2023-03-13T04:07:23.502Z,98910.13
2023-03-13T04:09:52.974Z,98907.91
2023-03-13T04:12:28.063Z,98906.81
2023-03-13T04:14:57.787Z,98909.69
2023-03-13T04:17:29.411Z,98908.91
2023-03-13T04:20:01.797Z,98904.09
2023-03-13T04:22:32.476Z,98915.28
2023-03-13T04:25:01.989Z,98914.84
2023-03-13T04:27:33.639Z,98910.59
2023-03-13T04:30:03.889Z,98910.25
2023-03-13T04:32:53.782Z,98914.88
2023-03-13T04:35:48.897Z,98913.28
2023-03-13T04:38:47.252Z,98904.78
2023-03-13T04:41:33.574Z,98909.97
2023-03-13T04:44:16.621Z,98910.84
2023-03-13T04:46:57.694Z,98920.84
2023-03-13T04:49:49.827Z,98911.75
2023-03-13T04:52:31.605Z,98915.75
2023-03-13T04:55:00.608Z,98910.06
2023-03-13T04:57:41.438Z,98912.00
2023-03-13T05:00:36.490Z,98901.69
2023-03-13T05:03:34.445Z,98900.72
2023-03-13T05:06:23.582Z,98902.16
2023-03-13T05:09:11.228Z,98909.69
2023-03-13T05:12:00.292Z,98914.09
2023-03-13T05:14:52.254Z,98910.03
2023-03-13T05:17:39.225Z,98908.22
2023-03-13T05:20:20.732Z,98907.28
2023-03-13T05:23:07.621Z,98899.56
2023-03-13T05:26:02.814Z,98910.41
2023-03-13T05:28:54.150Z,98899.34
2023-03-13T05:31:40.615Z,98898.50
2023-03-13T05:34:30.072Z,98892.41
2023-03-13T05:37:28.256Z,98892.94
2023-03-13T05:40:26.480Z,98883.22
2023-03-13T05:43:13.667Z,98880.56
2023-03-13T05:46:01.211Z,98880.16
2023-03-13T05:48:56.217Z,98881.31
2023-03-13T05:51:50.319Z,98881.53
2023-03-13T05:54:33.144Z,98877.91
2023-03-13T05:57:20.329Z,98880.03
2023-03-13T06:00:02.248Z,98879.00
2023-03-13T06:03:03.611Z,98868.38
2023-03-13T06:05:37.803Z,98873.94
2023-03-13T06:08:14.737Z,98862.34
2023-03-13T06:10:43.805Z,98865.56
2023-03-13T06:13:19.716Z,98860.63
2023-03-13T06:15:56.414Z,98863.16
2023-03-13T06:18:42.004Z,98850.47
2023-03-13T06:21:11.022Z,98849.97
2023-03-13T06:23:39.775Z,98852.31
2023-03-13T06:26:08.692Z,98841.94
2023-03-13T06:28:39.410Z,98849.47
2023-03-13T06:31:09.314Z,98841.56
2023-03-13T06:33:38.246Z,98831.88
2023-03-13T06:36:07.494Z,98833.75
2023-03-13T06:38:36.421Z,98830.66
2023-03-13T06:41:05.620Z,98823.72
2023-03-13T06:43:37.571Z,98831.34
2023-03-13T06:46:07.041Z,98817.19
2023-03-13T06:48:35.938Z,98814.91
2023-03-13T06:51:05.005Z,98822.25
2023-03-13T06:53:33.839Z,98813.84
2023-03-13T06:56:03.380Z,98814.06
2023-03-13T06:58:33.118Z,98796.00
2023-03-13T07:01:07.580Z,98793.16
2023-03-13T07:03:37.179Z,98786.38
2023-03-13T07:06:06.904Z,98780.56
2023-03-13T07:08:36.699Z,98776.16
2023-03-13T07:11:07.479Z,98777.09
2023-03-13T07:13:37.074Z,98764.72
2023-03-13T07:16:07.468Z,98758.66
2023-03-13T07:18:36.984Z,98761.03
2023-03-13T07:21:06.442Z,98756.78
2023-03-13T07:23:36.401Z,98753.88
2023-03-13T07:26:07.232Z,98758.22
2023-03-13T07:28:37.871Z,98749.97
2023-03-13T07:31:09.978Z,98744.16
2023-03-13T07:33:39.261Z,98744.69
2023-03-13T07:36:08.416Z,98733.78
2023-03-13T07:39:15.419Z,98732.75
2023-03-13T07:41:43.988Z,98721.38
2023-03-13T07:44:17.196Z,98725.53
2023-03-13T07:46:45.723Z,98719.75
2023-03-13T07:49:14.011Z,98710.59
2023-03-13T07:51:44.236Z,98706.59
2023-03-13T07:54:13.169Z,98706.00
2023-03-13T07:56:41.639Z,98699.47
2023-03-13T07:59:10.485Z,98697.59
2023-03-13T08:01:38.965Z,98686.63
2023-03-13T08:04:08.109Z,98690.69
2023-03-13T08:06:40.795Z,98679.78
2023-03-13T08:09:09.982Z,98670.22
2023-03-13T08:11:39.925Z,98671.75
2023-03-13T08:14:08.685Z,98669.84
2023-03-13T08:16:37.209Z,98657.16
2023-03-13T08:24:57.166Z,98650.25
2023-03-13T08:27:49.056Z,98648.53
2023-03-13T08:30:38.015Z,98643.00
2023-03-13T08:33:26.981Z,98634.84
2023-03-13T08:36:18.456Z,98635.22
2023-03-13T08:39:17.468Z,98632.00
2023-03-13T08:41:46.623Z,98628.84
2023-03-13T08:44:16.098Z,98623.81
2023-03-13T08:48:43.926Z,98615.81
2023-03-13T08:51:15.826Z,98605.63
2023-03-13T08:53:45.863Z,98602.75
2023-03-13T08:56:20.266Z,98591.31
2023-03-13T08:58:59.569Z,98596.50
2023-03-13T09:01:32.398Z,98589.03
2023-03-13T09:04:04.261Z,98590.72
2023-03-13T09:06:38.090Z,98588.56
2023-03-13T09:09:08.995Z,98580.88
2023-03-13T09:11:40.316Z,98578.69
2023-03-13T09:14:10.012Z,98579.91
2023-03-13T09:16:39.193Z,98566.19
2023-03-13T09:19:08.335Z,98558.97
2023-03-13T09:21:37.430Z,98565.72
2023-03-13T09:24:06.616Z,98554.78
2023-03-13T09:26:35.552Z,98545.03
2023-03-13T09:29:04.465Z,98547.88
2023-03-13T09:31:34.903Z,98545.53
2023-03-13T09:34:04.418Z,98540.94
2023-03-13T09:36:33.213Z,98531.91
2023-03-13T09:39:02.206Z,98528.91
2023-03-13T09:41:59.855Z,98525.41
2023-03-13T09:44:37.606Z,98536.13
2023-03-13T09:47:22.848Z,98522.41
2023-03-13T09:50:12.290Z,98519.78
2023-03-13T09:52:42.640Z,98521.72
2023-03-13T09:55:18.389Z,98520.63
2023-03-13T09:58:03.607Z,98518.06
2023-03-13T10:00:42.132Z,98511.00
2023-03-13T10:03:40.329Z,98504.59
2023-03-13T10:06:21.081Z,98510.63
2023-03-13T10:08:51.259Z,98510.63
2023-03-13T10:11:44.603Z,98507.03
2023-03-13T10:14:40.606Z,98503.53
2023-03-13T10:17:29.821Z,98498.97
2023-03-13T10:20:23.009Z,98497.50
2023-03-13T10:22:59.472Z,98489.72
2023-03-13T10:25:42.267Z,98487.78
2023-03-13T10:28:17.703Z,98483.22
2023-03-13T10:30:53.520Z,98479.00
2023-03-13T10:33:28.949Z,98483.34
2023-03-13T10:36:02.450Z,98481.19
2023-03-13T10:38:35.859Z,98487.91
2023-03-13T10:41:34.815Z,98488.53
2023-03-13T10:44:09.569Z,98493.69
2023-03-13T10:46:43.436Z,98478.78
2023-03-13T10:49:20.962Z,98482.16
2023-03-13T10:52:00.541Z,98478.44
2023-03-13T10:54:31.098Z,98479.88
2023-03-13T10:57:23.045Z,98475.88
2023-03-13T10:59:54.265Z,98475.28
2023-03-13T11:02:37.006Z,98470.84
2023-03-13T11:05:27.868Z,98468.56
2023-03-13T11:07:57.789Z,98469.66
2023-03-13T11:10:33.315Z,98471.19
2023-03-13T11:13:02.770Z,98471.53
2023-03-13T11:15:40.786Z,98471.59
2023-03-13T11:18:15.012Z,98466.50
2023-03-13T11:20:47.035Z,98467.69
2023-03-13T11:23:30.765Z,98466.13
2023-03-13T11:26:11.967Z,98456.28
2023-03-13T11:29:03.519Z,98461.09
2023-03-13T11:31:47.597Z,98454.25
2023-03-13T11:34:52.757Z,98451.38
2023-03-13T11:37:24.112Z,98439.88
2023-03-13T11:40:11.302Z,98444.81
2023-03-13T11:42:58.912Z,98452.88
2023-03-13T11:45:52.209Z,98441.59
2023-03-13T11:48:38.738Z,98434.84
2023-03-13T11:51:20.721Z,98429.09
2023-03-13T11:54:25.814Z,98439.09
2023-03-13T11:56:59.699Z,98439.47
2023-03-13T11:59:49.210Z,98442.88
2023-03-13T12:02:56.400Z,98434.44
2023-03-13T12:05:27.423Z,98442.72
2023-03-13T12:08:07.312Z,98440.28
2023-03-13T12:10:45.277Z,98443.41
2023-03-13T12:13:43.274Z,98441.94
2023-03-13T12:16:22.350Z,98441.72
2023-03-13T12:18:53.556Z,98445.31
2023-03-13T12:21:54.146Z,98447.22
2023-03-13T12:24:28.883Z,98440.75
2023-03-13T12:27:03.548Z,98447.88
2023-03-13T12:29:59.842Z,98442.06
2023-03-13T12:32:40.317Z,98442.06
2023-03-13T12:35:41.474Z,98441.56
2023-03-13T12:38:26.070Z,98450.75
2023-03-13T12:41:10.294Z,98456.16
2023-03-13T12:43:49.667Z,98449.63
2023-03-13T12:46:38.160Z,98459.88
2023-03-13T12:49:28.574Z,98464.00
2023-03-13T12:52:34.388Z,98459.56
2023-03-13T12:55:31.754Z,98465.38
2023-03-13T12:58:24.746Z,98466.25
2023-03-13T13:00:56.562Z,98467.97
2023-03-13T13:04:01.581Z,98471.22
2023-03-13T13:07:20.166Z,98478.13
2023-03-13T13:10:18.284Z,98472.63
2023-03-13T13:13:16.524Z,98467.38
2023-03-13T13:16:00.516Z,98469.91
2023-03-13T13:18:31.562Z,98467.59
2023-03-13T13:21:06.418Z,98474.84
2023-03-13T13:23:39.880Z,98470.22
2023-03-13T13:26:29.770Z,98477.91
2023-03-13T13:29:01.401Z,98470.75
2023-03-13T13:31:49.120Z,98480.63
2023-03-13T13:34:32.709Z,98484.63
2023-03-13T13:37:24.650Z,98491.94
2023-03-13T13:39:55.322Z,98496.44
2023-03-13T13:42:33.069Z,98499.78
2023-03-13T13:45:06.778Z,98509.16
2023-03-13T13:47:35.780Z,98509.81
2023-03-13T13:50:04.597Z,98506.66
2023-03-13T13:52:43.893Z,98513.25
2023-03-13T13:55:27.848Z,98508.81
2023-03-13T13:58:12.280Z,98513.03
2023-03-13T14:01:01.264Z,98511.44
2023-03-13T14:03:33.092Z,98517.91
2023-03-13T14:06:13.064Z,98518.41
2023-03-13T14:08:45.963Z,98516.13
2023-03-13T14:11:33.896Z,98525.00
2023-03-13T14:14:16.231Z,98524.75
2023-03-13T14:16:53.213Z,98529.44
2023-03-13T14:19:39.213Z,98538.34
2023-03-13T14:22:12.712Z,98536.84
2023-03-13T14:24:42.024Z,98544.56
2023-03-13T14:27:22.443Z,98546.06
2023-03-13T14:30:12.597Z,98547.19
2023-03-13T14:32:42.115Z,98545.13
2023-03-13T14:35:13.221Z,98553.88
2023-03-13T14:37:51.885Z,98548.72
2023-03-13T14:40:24.708Z,98545.72
2023-03-13T14:43:02.210Z,98556.41
2023-03-13T14:45:40.163Z,98555.91
2023-03-13T14:48:30.230Z,98565.94
2023-03-13T14:51:15.280Z,98567.06
2023-03-13T14:54:02.758Z,98570.44
2023-03-13T14:56:43.152Z,98571.00
2023-03-13T14:59:19.000Z,98577.44
2023-03-13T15:01:48.326Z,98574.91
2023-03-13T15:04:17.079Z,98570.66
2023-03-13T15:06:46.117Z,98565.78
2023-03-13T15:09:23.785Z,98575.28
2023-03-13T15:11:59.467Z,98571.03
2023-03-13T15:14:41.262Z,98565.09
2023-03-13T15:17:23.047Z,98558.38
2023-03-13T15:19:58.306Z,98561.22
2023-03-13T15:22:32.926Z,98564.63
2023-03-13T15:25:06.917Z,98565.00
2023-03-13T15:27:36.898Z,98564.25
2023-03-13T15:30:06.132Z,98569.00
2023-03-13T15:32:40.179Z,98561.13
2023-03-13T15:35:31.475Z,98568.03
2023-03-13T15:38:02.518Z,98561.44
2023-03-13T15:40:34.610Z,98571.38
2023-03-13T15:43:03.554Z,98576.69
2023-03-13T15:45:32.454Z,98568.94
2023-03-13T15:48:02.024Z,98573.31
2023-03-13T15:50:31.908Z,98575.19
2023-03-13T15:53:01.842Z,98578.91
2023-03-13T15:55:31.295Z,98578.91
2023-03-13T15:58:00.234Z,98574.19
2023-03-13T16:00:29.094Z,98574.47
2023-03-13T16:02:58.160Z,98577.38
2023-03-13T16:05:26.864Z,98572.03
2023-03-13T16:07:56.040Z,98574.66
2023-03-13T16:10:28.890Z,98573.97
2023-03-13T16:12:58.020Z,98577.16
2023-03-13T16:15:26.816Z,98574.38
2023-03-13T16:17:57.879Z,98575.06
2023-03-13T16:20:27.475Z,98573.56
2023-03-13T16:22:57.090Z,98566.84
2023-03-13T16:25:26.825Z,98563.56
2023-03-13T16:27:57.320Z,98567.19
2023-03-13T16:30:31.600Z,98565.25
2023-03-13T16:33:01.492Z,98565.91
2023-03-13T16:35:30.869Z,98558.91
2023-03-13T16:37:59.982Z,98565.47
2023-03-13T16:40:33.274Z,98569.31
2023-03-13T16:43:02.660Z,98577.66
2023-03-13T16:45:31.574Z,98592.78
2023-03-13T16:48:00.736Z,98587.94
2023-03-13T16:50:38.006Z,98594.22
2023-03-13T16:53:06.957Z,98597.38
2023-03-13T16:55:38.193Z,98600.75
2023-03-13T16:58:07.202Z,98597.38
2023-03-13T17:00:37.661Z,98605.56
2023-03-13T17:03:06.756Z,98599.31
2023-03-13T17:05:35.582Z,98596.91
2023-03-13T17:08:04.941Z,98603.00
2023-03-13T17:10:34.779Z,98597.13
2023-03-13T17:13:04.398Z,98595.34
2023-03-13T17:15:33.485Z,98595.06
2023-03-13T17:18:02.228Z,98594.53
2023-03-13T17:20:31.707Z,98588.81
2023-03-13T17:23:01.962Z,98588.50
2023-03-13T17:25:30.943Z,98582.50
2023-03-13T17:27:59.720Z,98583.19
2023-03-13T17:30:31.236Z,98586.56
2023-03-13T17:33:01.783Z,98583.06
2023-03-13T17:35:30.817Z,98580.28
2023-03-13T17:37:59.610Z,98568.59
2023-03-13T17:40:30.896Z,98569.22
2023-03-13T17:43:00.003Z,98567.84
2023-03-13T17:45:28.739Z,98568.75
2023-03-13T17:47:57.888Z,98565.06
2023-03-13T17:50:28.470Z,98559.97
2023-03-13T17:52:57.867Z,98557.06
2023-03-13T17:55:26.518Z,98556.13
2023-03-13T17:57:55.511Z,98557.97
2023-03-13T18:00:33.626Z,98564.00
2023-03-13T18:03:02.887Z,98557.69
2023-03-13T18:05:31.738Z,98552.31
2023-03-13T18:08:01.126Z,98549.06
2023-03-13T18:10:31.618Z,98552.78
2023-03-13T18:13:00.509Z,98554.59
2023-03-13T18:15:29.200Z,98551.06
2023-03-13T18:17:58.166Z,98554.75
2023-03-13T18:20:29.543Z,98553.09
2023-03-13T18:23:01.119Z,98549.06
2023-03-13T18:25:31.005Z,98550.19
2023-03-13T18:28:00.229Z,98544.25
2023-03-13T18:30:29.901Z,98542.50
2023-03-13T18:32:58.677Z,98541.03
2023-03-13T18:35:27.602Z,98540.88
2023-03-13T18:37:56.367Z,98541.97
2023-03-13T18:40:28.407Z,98542.66
2023-03-13T18:42:57.447Z,98537.03
2023-03-13T18:45:27.730Z,98547.59
2023-03-13T18:47:56.843Z,98543.28
2023-03-13T18:50:28.704Z,98542.28
2023-03-13T18:53:00.356Z,98537.28
2023-03-13T18:55:31.637Z,98539.06
2023-03-13T18:58:00.736Z,98539.47
2023-03-13T19:00:31.631Z,98541.63
2023-03-13T19:03:00.583Z,98536.56
2023-03-13T19:05:29.702Z,98544.25
2023-03-13T19:07:58.722Z,98550.84
2023-03-13T19:10:32.503Z,98545.53
2023-03-13T19:13:01.549Z,98538.69
2023-03-13T19:15:35.393Z,98540.84
2023-03-13T19:18:04.520Z,98543.63
2023-03-13T19:20:33.445Z,98543.06
2023-03-13T19:23:02.486Z,98537.84
2023-03-13T19:25:31.305Z,98541.88
2023-03-13T19:28:00.266Z,98540.84
2023-03-13T19:30:29.041Z,98551.44
2023-03-13T19:32:58.137Z,98547.91
2023-03-13T19:35:27.639Z,98550.44
2023-03-13T19:37:56.630Z,98553.38
2023-03-13T19:40:29.575Z,98549.72
2023-03-13T19:42:58.815Z,98553.13
2023-03-13T19:45:28.574Z,98551.47
2023-03-13T19:47:57.556Z,98550.50
2023-03-13T19:50:30.750Z,98549.78
2023-03-13T19:52:59.867Z,98546.34
2023-03-13T19:55:28.715Z,98546.34
2023-03-13T19:57:57.552Z,98536.28
2023-03-13T20:00:28.910Z,98541.00
2023-03-13T20:02:58.495Z,98540.06
2023-03-13T20:05:30.278Z,98539.25
2023-03-13T20:07:59.405Z,98537.44
2023-03-13T20:10:28.118Z,98535.75
2023-03-13T20:12:57.057Z,98533.06
2023-03-13T20:15:25.923Z,98530.00
2023-03-13T20:17:57.371Z,98537.84
2023-03-13T20:20:26.347Z,98535.75
2023-03-13T20:22:55.115Z,98542.94
2023-03-13T20:25:25.327Z,98532.78
2023-03-13T20:27:54.406Z,98537.59
2023-03-13T20:30:24.206Z,98536.75
2023-03-13T20:32:59.724Z,98539.84
2023-03-13T20:35:29.785Z,98532.84
2023-03-13T20:38:00.590Z,98530.53
2023-03-13T20:40:29.762Z,98527.63
2023-03-13T20:42:59.644Z,98527.88
2023-03-13T20:45:32.909Z,98529.31
2023-03-13T20:48:01.809Z,98531.50
2023-03-13T20:50:30.633Z,98529.91
2023-03-13T20:52:59.608Z,98527.81
2023-03-13T20:55:28.285Z,98524.91
2023-03-13T20:57:57.304Z,98523.97
2023-03-13T21:00:26.214Z,98526.44
2023-03-13T21:02:55.277Z,98530.31
2023-03-13T21:05:24.022Z,98518.97
2023-03-13T21:07:53.165Z,98518.13
2023-03-13T21:10:22.250Z,98514.81
2023-03-13T21:12:51.453Z,98516.81
2023-03-13T21:15:20.544Z,98517.22
2023-03-13T21:17:49.583Z,98518.91
2023-03-13T21:20:18.313Z,98510.03
2023-03-13T21:22:47.312Z,98503.81
2023-03-13T21:25:16.425Z,98512.16
2023-03-13T21:27:45.437Z,98492.03
2023-03-13T21:30:19.075Z,98488.75
2023-03-13T21:32:49.005Z,98493.63
2023-03-13T21:35:18.356Z,98493.63
2023-03-13T21:37:49.257Z,98493.50
2023-03-13T21:40:18.269Z,98495.19
2023-03-13T21:42:46.941Z,98496.88
2023-03-13T21:45:15.832Z,98489.03
2023-03-13T21:47:44.524Z,98493.53
2023-03-13T21:50:14.345Z,98488.41
2023-03-13T21:52:43.309Z,98483.25
2023-03-13T21:55:14.187Z,98481.28
2023-03-13T21:57:43.464Z,98474.47
2023-03-13T22:00:15.025Z,98476.78
2023-03-13T22:02:44.312Z,98482.91
2023-03-13T22:05:13.521Z,98489.03
2023-03-13T22:07:42.523Z,98483.81
2023-03-13T22:10:11.902Z,98471.63
2023-03-13T22:12:40.932Z,98477.97
2023-03-13T22:15:10.508Z,98472.91
2023-03-13T22:17:39.719Z,98469.75
2023-03-13T22:20:09.471Z,98467.94
2023-03-13T22:22:38.509Z,98465.72
2023-03-13T22:25:07.641Z,98464.44
2023-03-13T22:27:36.591Z,98459.94
2023-03-13T22:30:05.768Z,98457.47
2023-03-13T22:32:34.816Z,98464.44
2023-03-13T22:35:03.670Z,98463.53
2023-03-13T22:37:32.787Z,98462.69
2023-03-13T22:40:03.115Z,98464.50
2023-03-13T22:42:34.654Z,98465.06
2023-03-13T22:45:03.953Z,98475.00
2023-03-13T22:47:33.417Z,98475.81
2023-03-13T22:50:02.369Z,98471.44
2023-03-13T22:52:31.962Z,98475.66
2023-03-13T22:55:00.992Z,98481.16
2023-03-13T22:57:30.177Z,98478.53
2023-03-13T23:00:00.244Z,98479.31
2023-03-13T23:02:30.192Z,98477.84
2023-03-13T23:05:02.069Z,98472.91
2023-03-13T23:07:31.563Z,98474.47
2023-03-13T23:10:00.834Z,98488.28
2023-03-13T23:12:31.746Z,98484.22
2023-03-13T23:15:01.074Z,98489.66
2023-03-13T23:17:34.101Z,98482.75
2023-03-13T23:20:03.445Z,98485.53
2023-03-13T23:22:33.822Z,98481.91
2023-03-13T23:25:02.885Z,98485.41
2023-03-13T23:27:32.653Z,98491.00
2023-03-13T23:30:02.834Z,98492.59
2023-03-13T23:32:37.518Z,98492.84
2023-03-13T23:35:07.746Z,98489.22
2023-03-13T23:37:36.875Z,98485.88
2023-03-13T23:40:11.846Z,98489.94
2023-03-13T23:42:41.030Z,98488.66
2023-03-13T23:45:10.082Z,98498.31
2023-03-13T23:47:39.309Z,98493.38
2023-03-13T23:50:08.285Z,98486.44
2023-03-13T23:52:37.991Z,98496.41
2023-03-13T23:55:07.478Z,98487.78
2023-03-13T23:57:38.503Z,98491.31
